sensor_id;sensor_type;location;lat;lon;timestamp;P1;durP1;ratioP1;P2;durP2;ratioP2
9906;SDS011;4992;51.628;6.664;2024-02-26T00:01:42;3.17;;;2.30;;
9906;SDS011;4992;51.628;6.664;2024-02-26T00:04:09;3.30;;;2.30;;
9906;SDS011;4992;51.628;6.664;2024-02-26T00:06:35;3.27;;;2.33;;
9906;SDS011;4992;51.628;6.664;2024-02-26T00:09:01;3.83;;;2.63;;
9906;SDS011;4992;51.628;6.664;2024-02-26T00:11:30;3.43;;;1.90;;
9906;SDS011;4992;51.628;6.664;2024-02-26T00:13:56;3.20;;;2.10;;
9906;SDS011;4992;51.628;6.664;2024-02-26T00:16:23;3.80;;;2.43;;
9906;SDS011;4992;51.628;6.664;2024-02-26T00:18:49;2.20;;;2.00;;
9906;SDS011;4992;51.628;6.664;2024-02-26T00:21:14;2.70;;;2.20;;
9906;SDS011;4992;51.628;6.664;2024-02-26T00:23:40;4.00;;;2.30;;
9906;SDS011;4992;51.628;6.664;2024-02-26T00:26:06;2.20;;;1.97;;
9906;SDS011;4992;51.628;6.664;2024-02-26T00:28:32;1.93;;;1.80;;
9906;SDS011;4992;51.628;6.664;2024-02-26T00:30:58;2.50;;;2.30;;
9906;SDS011;4992;51.628;6.664;2024-02-26T00:33:24;3.37;;;2.00;;
9906;SDS011;4992;51.628;6.664;2024-02-26T00:35:50;2.10;;;1.90;;
9906;SDS011;4992;51.628;6.664;2024-02-26T00:38:16;4.13;;;2.20;;
9906;SDS011;4992;51.628;6.664;2024-02-26T00:40:42;3.37;;;2.27;;
9906;SDS011;4992;51.628;6.664;2024-02-26T00:43:08;1.93;;;1.83;;
9906;SDS011;4992;51.628;6.664;2024-02-26T00:45:34;2.30;;;2.10;;
9906;SDS011;4992;51.628;6.664;2024-02-26T00:48:00;2.30;;;2.10;;
9906;SDS011;4992;51.628;6.664;2024-02-26T00:50:29;3.63;;;2.07;;
9906;SDS011;4992;51.628;6.664;2024-02-26T00:52:55;1.93;;;1.83;;
9906;SDS011;4992;51.628;6.664;2024-02-26T00:55:21;1.80;;;1.67;;
9906;SDS011;4992;51.628;6.664;2024-02-26T00:57:47;2.20;;;1.73;;
9906;SDS011;4992;51.628;6.664;2024-02-26T01:00:13;1.67;;;1.50;;
9906;SDS011;4992;51.628;6.664;2024-02-26T01:02:40;3.03;;;2.10;;
9906;SDS011;4992;51.628;6.664;2024-02-26T01:05:07;2.50;;;2.00;;
9906;SDS011;4992;51.628;6.664;2024-02-26T01:07:34;2.10;;;1.50;;
9906;SDS011;4992;51.628;6.664;2024-02-26T01:10:04;1.77;;;1.67;;
9906;SDS011;4992;51.628;6.664;2024-02-26T01:12:30;2.50;;;1.83;;
9906;SDS011;4992;51.628;6.664;2024-02-26T01:14:56;2.73;;;1.63;;
9906;SDS011;4992;51.628;6.664;2024-02-26T01:17:22;2.10;;;1.63;;
9906;SDS011;4992;51.628;6.664;2024-02-26T01:19:48;3.03;;;1.97;;
9906;SDS011;4992;51.628;6.664;2024-02-26T01:22:14;2.30;;;1.70;;
9906;SDS011;4992;51.628;6.664;2024-02-26T01:24:40;3.57;;;1.70;;
9906;SDS011;4992;51.628;6.664;2024-02-26T01:27:06;2.10;;;1.90;;
9906;SDS011;4992;51.628;6.664;2024-02-26T01:29:33;4.07;;;2.00;;
9906;SDS011;4992;51.628;6.664;2024-02-26T01:31:59;4.00;;;1.87;;
9906;SDS011;4992;51.628;6.664;2024-02-26T01:34:25;2.40;;;1.80;;
9906;SDS011;4992;51.628;6.664;2024-02-26T01:36:51;3.10;;;2.00;;
9906;SDS011;4992;51.628;6.664;2024-02-26T01:39:17;2.03;;;1.70;;
9906;SDS011;4992;51.628;6.664;2024-02-26T01:41:43;1.67;;;1.50;;
9906;SDS011;4992;51.628;6.664;2024-02-26T01:44:11;2.13;;;1.67;;
9906;SDS011;4992;51.628;6.664;2024-02-26T01:46:40;1.47;;;1.37;;
9906;SDS011;4992;51.628;6.664;2024-02-26T01:49:07;2.23;;;2.03;;
9906;SDS011;4992;51.628;6.664;2024-02-26T01:51:34;1.90;;;1.80;;
9906;SDS011;4992;51.628;6.664;2024-02-26T01:54:01;4.23;;;1.93;;
9906;SDS011;4992;51.628;6.664;2024-02-26T01:56:28;1.93;;;1.83;;
9906;SDS011;4992;51.628;6.664;2024-02-26T01:58:57;2.27;;;2.07;;
9906;SDS011;4992;51.628;6.664;2024-02-26T02:01:25;1.97;;;1.77;;
9906;SDS011;4992;51.628;6.664;2024-02-26T02:03:51;2.93;;;1.97;;
9906;SDS011;4992;51.628;6.664;2024-02-26T02:06:17;2.90;;;2.07;;
9906;SDS011;4992;51.628;6.664;2024-02-26T02:08:43;2.27;;;1.77;;
9906;SDS011;4992;51.628;6.664;2024-02-26T02:11:09;4.13;;;2.30;;
9906;SDS011;4992;51.628;6.664;2024-02-26T02:13:39;3.57;;;1.63;;
9906;SDS011;4992;51.628;6.664;2024-02-26T02:16:06;2.43;;;1.93;;
9906;SDS011;4992;51.628;6.664;2024-02-26T02:18:32;1.80;;;1.70;;
9906;SDS011;4992;51.628;6.664;2024-02-26T02:20:59;2.53;;;1.83;;
9906;SDS011;4992;51.628;6.664;2024-02-26T02:23:25;3.07;;;2.13;;
9906;SDS011;4992;51.628;6.664;2024-02-26T02:25:52;1.97;;;1.87;;
9906;SDS011;4992;51.628;6.664;2024-02-26T02:28:18;1.87;;;1.77;;
9906;SDS011;4992;51.628;6.664;2024-02-26T02:30:44;2.40;;;1.93;;
9906;SDS011;4992;51.628;6.664;2024-02-26T02:33:10;2.40;;;1.80;;
9906;SDS011;4992;51.628;6.664;2024-02-26T02:35:37;2.23;;;2.07;;
9906;SDS011;4992;51.628;6.664;2024-02-26T02:38:03;2.50;;;1.90;;
9906;SDS011;4992;51.628;6.664;2024-02-26T02:40:29;1.70;;;1.60;;
9906;SDS011;4992;51.628;6.664;2024-02-26T02:42:55;3.13;;;1.77;;
9906;SDS011;4992;51.628;6.664;2024-02-26T02:45:21;1.33;;;1.23;;
9906;SDS011;4992;51.628;6.664;2024-02-26T02:47:47;1.77;;;1.67;;
9906;SDS011;4992;51.628;6.664;2024-02-26T02:50:13;1.83;;;1.73;;
9906;SDS011;4992;51.628;6.664;2024-02-26T02:52:39;1.53;;;1.43;;
9906;SDS011;4992;51.628;6.664;2024-02-26T02:55:05;3.87;;;1.90;;
9906;SDS011;4992;51.628;6.664;2024-02-26T02:57:31;2.57;;;2.10;;
9906;SDS011;4992;51.628;6.664;2024-02-26T02:59:57;2.50;;;2.30;;
9906;SDS011;4992;51.628;6.664;2024-02-26T03:02:23;2.57;;;1.67;;
9906;SDS011;4992;51.628;6.664;2024-02-26T03:04:52;2.50;;;1.63;;
9906;SDS011;4992;51.628;6.664;2024-02-26T03:07:18;3.60;;;1.57;;
9906;SDS011;4992;51.628;6.664;2024-02-26T03:09:44;1.83;;;1.73;;
9906;SDS011;4992;51.628;6.664;2024-02-26T03:12:10;1.70;;;1.60;;
9906;SDS011;4992;51.628;6.664;2024-02-26T03:14:36;3.07;;;1.60;;
9906;SDS011;4992;51.628;6.664;2024-02-26T03:17:02;1.97;;;1.87;;
9906;SDS011;4992;51.628;6.664;2024-02-26T03:19:28;2.07;;;1.87;;
9906;SDS011;4992;51.628;6.664;2024-02-26T03:21:53;1.77;;;1.60;;
9906;SDS011;4992;51.628;6.664;2024-02-26T03:24:19;2.20;;;1.90;;
9906;SDS011;4992;51.628;6.664;2024-02-26T03:26:45;1.70;;;1.60;;
9906;SDS011;4992;51.628;6.664;2024-02-26T03:29:11;2.00;;;1.90;;
9906;SDS011;4992;51.628;6.664;2024-02-26T03:31:37;2.03;;;1.80;;
9906;SDS011;4992;51.628;6.664;2024-02-26T03:34:03;2.60;;;1.77;;
9906;SDS011;4992;51.628;6.664;2024-02-26T03:36:29;1.97;;;1.73;;
9906;SDS011;4992;51.628;6.664;2024-02-26T03:38:55;3.20;;;1.50;;
9906;SDS011;4992;51.628;6.664;2024-02-26T03:41:21;1.80;;;1.70;;
9906;SDS011;4992;51.628;6.664;2024-02-26T03:43:47;1.63;;;1.53;;
9906;SDS011;4992;51.628;6.664;2024-02-26T03:46:13;1.60;;;1.50;;
9906;SDS011;4992;51.628;6.664;2024-02-26T03:48:40;1.83;;;1.73;;
9906;SDS011;4992;51.628;6.664;2024-02-26T03:51:06;1.63;;;1.33;;
9906;SDS011;4992;51.628;6.664;2024-02-26T03:53:34;2.03;;;1.60;;
9906;SDS011;4992;51.628;6.664;2024-02-26T03:56:02;1.83;;;1.73;;
9906;SDS011;4992;51.628;6.664;2024-02-26T03:58:28;1.83;;;1.73;;
9906;SDS011;4992;51.628;6.664;2024-02-26T04:00:54;7.17;;;1.80;;
9906;SDS011;4992;51.628;6.664;2024-02-26T04:03:21;1.77;;;1.67;;
9906;SDS011;4992;51.628;6.664;2024-02-26T04:05:46;1.97;;;1.60;;
9906;SDS011;4992;51.628;6.664;2024-02-26T04:08:13;1.43;;;1.30;;
9906;SDS011;4992;51.628;6.664;2024-02-26T04:10:38;4.10;;;1.73;;
9906;SDS011;4992;51.628;6.664;2024-02-26T04:13:05;2.40;;;1.63;;
9906;SDS011;4992;51.628;6.664;2024-02-26T04:15:31;1.40;;;1.30;;
9906;SDS011;4992;51.628;6.664;2024-02-26T04:17:57;1.30;;;1.20;;
9906;SDS011;4992;51.628;6.664;2024-02-26T04:20:23;2.60;;;1.40;;
9906;SDS011;4992;51.628;6.664;2024-02-26T04:22:49;1.60;;;1.27;;
9906;SDS011;4992;51.628;6.664;2024-02-26T04:25:15;1.37;;;1.20;;
9906;SDS011;4992;51.628;6.664;2024-02-26T04:27:41;1.70;;;1.60;;
9906;SDS011;4992;51.628;6.664;2024-02-26T04:30:07;1.50;;;1.40;;
9906;SDS011;4992;51.628;6.664;2024-02-26T04:32:33;1.93;;;1.43;;
9906;SDS011;4992;51.628;6.664;2024-02-26T04:35:00;2.10;;;1.10;;
9906;SDS011;4992;51.628;6.664;2024-02-26T04:37:26;3.70;;;2.33;;
9906;SDS011;4992;51.628;6.664;2024-02-26T04:39:56;2.93;;;1.77;;
9906;SDS011;4992;51.628;6.664;2024-02-26T04:42:22;3.07;;;1.77;;
9906;SDS011;4992;51.628;6.664;2024-02-26T04:44:47;1.57;;;1.47;;
9906;SDS011;4992;51.628;6.664;2024-02-26T04:47:13;2.07;;;1.53;;
9906;SDS011;4992;51.628;6.664;2024-02-26T04:49:40;1.20;;;1.07;;
9906;SDS011;4992;51.628;6.664;2024-02-26T04:52:06;1.50;;;1.37;;
9906;SDS011;4992;51.628;6.664;2024-02-26T04:54:32;1.20;;;1.10;;
9906;SDS011;4992;51.628;6.664;2024-02-26T04:56:58;1.50;;;1.40;;
9906;SDS011;4992;51.628;6.664;2024-02-26T04:59:24;1.27;;;1.20;;
9906;SDS011;4992;51.628;6.664;2024-02-26T05:01:50;1.60;;;1.50;;
9906;SDS011;4992;51.628;6.664;2024-02-26T05:04:17;3.47;;;1.60;;
9906;SDS011;4992;51.628;6.664;2024-02-26T05:06:44;1.23;;;1.13;;
9906;SDS011;4992;51.628;6.664;2024-02-26T05:09:09;1.50;;;1.40;;
9906;SDS011;4992;51.628;6.664;2024-02-26T05:11:35;2.00;;;1.80;;
9906;SDS011;4992;51.628;6.664;2024-02-26T05:14:02;1.30;;;1.30;;
9906;SDS011;4992;51.628;6.664;2024-02-26T05:16:28;1.80;;;1.70;;
9906;SDS011;4992;51.628;6.664;2024-02-26T05:18:55;1.40;;;1.30;;
9906;SDS011;4992;51.628;6.664;2024-02-26T05:21:21;3.70;;;1.80;;
9906;SDS011;4992;51.628;6.664;2024-02-26T05:23:47;1.57;;;1.47;;
9906;SDS011;4992;51.628;6.664;2024-02-26T05:26:22;1.87;;;1.77;;
9906;SDS011;4992;51.628;6.664;2024-02-26T05:28:49;1.80;;;1.70;;
9906;SDS011;4992;51.628;6.664;2024-02-26T05:31:15;2.10;;;1.90;;
9906;SDS011;4992;51.628;6.664;2024-02-26T05:33:41;1.93;;;1.80;;
9906;SDS011;4992;51.628;6.664;2024-02-26T05:36:07;2.40;;;2.20;;
9906;SDS011;4992;51.628;6.664;2024-02-26T05:38:33;2.20;;;2.00;;
9906;SDS011;4992;51.628;6.664;2024-02-26T05:40:59;1.70;;;1.60;;
9906;SDS011;4992;51.628;6.664;2024-02-26T05:43:26;2.27;;;1.90;;
9906;SDS011;4992;51.628;6.664;2024-02-26T05:45:52;2.10;;;1.90;;
9906;SDS011;4992;51.628;6.664;2024-02-26T05:48:18;2.13;;;1.93;;
9906;SDS011;4992;51.628;6.664;2024-02-26T05:50:44;5.23;;;1.83;;
9906;SDS011;4992;51.628;6.664;2024-02-26T05:53:10;2.53;;;2.30;;
9906;SDS011;4992;51.628;6.664;2024-02-26T05:55:36;3.37;;;2.47;;
9906;SDS011;4992;51.628;6.664;2024-02-26T05:58:02;3.17;;;2.17;;
9906;SDS011;4992;51.628;6.664;2024-02-26T06:00:28;3.50;;;3.20;;
9906;SDS011;4992;51.628;6.664;2024-02-26T06:02:54;2.90;;;2.70;;
9906;SDS011;4992;51.628;6.664;2024-02-26T06:05:20;4.00;;;2.63;;
9906;SDS011;4992;51.628;6.664;2024-02-26T06:07:46;2.80;;;2.60;;
9906;SDS011;4992;51.628;6.664;2024-02-26T06:10:12;3.03;;;2.00;;
9906;SDS011;4992;51.628;6.664;2024-02-26T06:12:39;2.37;;;2.17;;
9906;SDS011;4992;51.628;6.664;2024-02-26T06:15:05;3.83;;;2.40;;
9906;SDS011;4992;51.628;6.664;2024-02-26T06:17:31;2.20;;;2.00;;
9906;SDS011;4992;51.628;6.664;2024-02-26T06:19:58;2.60;;;2.40;;
9906;SDS011;4992;51.628;6.664;2024-02-26T06:22:24;2.53;;;2.20;;
9906;SDS011;4992;51.628;6.664;2024-02-26T06:24:50;2.30;;;2.20;;
9906;SDS011;4992;51.628;6.664;2024-02-26T06:27:16;3.23;;;2.40;;
9906;SDS011;4992;51.628;6.664;2024-02-26T06:29:42;3.83;;;2.40;;
9906;SDS011;4992;51.628;6.664;2024-02-26T06:32:08;2.43;;;2.27;;
9906;SDS011;4992;51.628;6.664;2024-02-26T06:34:34;3.07;;;2.87;;
9906;SDS011;4992;51.628;6.664;2024-02-26T06:37:00;3.13;;;2.73;;
9906;SDS011;4992;51.628;6.664;2024-02-26T06:39:26;2.73;;;2.47;;
9906;SDS011;4992;51.628;6.664;2024-02-26T06:41:52;4.00;;;2.80;;
9906;SDS011;4992;51.628;6.664;2024-02-26T06:44:25;3.00;;;2.80;;
9906;SDS011;4992;51.628;6.664;2024-02-26T06:46:51;3.03;;;2.53;;
9906;SDS011;4992;51.628;6.664;2024-02-26T06:49:17;2.87;;;2.67;;
9906;SDS011;4992;51.628;6.664;2024-02-26T06:51:43;3.63;;;3.33;;
9906;SDS011;4992;51.628;6.664;2024-02-26T06:54:09;4.17;;;3.77;;
9906;SDS011;4992;51.628;6.664;2024-02-26T06:56:34;5.50;;;3.87;;
9906;SDS011;4992;51.628;6.664;2024-02-26T06:59:00;6.40;;;3.63;;
9906;SDS011;4992;51.628;6.664;2024-02-26T07:01:26;2.97;;;2.67;;
9906;SDS011;4992;51.628;6.664;2024-02-26T07:03:52;3.47;;;2.40;;
9906;SDS011;4992;51.628;6.664;2024-02-26T07:06:18;3.10;;;2.80;;
9906;SDS011;4992;51.628;6.664;2024-02-26T07:08:44;4.20;;;3.00;;
9906;SDS011;4992;51.628;6.664;2024-02-26T07:11:10;3.10;;;2.80;;
9906;SDS011;4992;51.628;6.664;2024-02-26T07:13:36;3.00;;;2.80;;
9906;SDS011;4992;51.628;6.664;2024-02-26T07:16:02;4.00;;;2.97;;
9906;SDS011;4992;51.628;6.664;2024-02-26T07:18:28;3.00;;;2.70;;
9906;SDS011;4992;51.628;6.664;2024-02-26T07:20:54;3.37;;;2.60;;
9906;SDS011;4992;51.628;6.664;2024-02-26T07:23:20;6.37;;;2.83;;
9906;SDS011;4992;51.628;6.664;2024-02-26T07:25:46;3.43;;;3.00;;
9906;SDS011;4992;51.628;6.664;2024-02-26T07:28:14;2.57;;;2.23;;
9906;SDS011;4992;51.628;6.664;2024-02-26T07:30:40;4.17;;;2.67;;
9906;SDS011;4992;51.628;6.664;2024-02-26T07:33:06;2.73;;;2.30;;
9906;SDS011;4992;51.628;6.664;2024-02-26T07:35:32;2.90;;;2.70;;
9906;SDS011;4992;51.628;6.664;2024-02-26T07:37:58;3.23;;;2.90;;
9906;SDS011;4992;51.628;6.664;2024-02-26T07:40:24;3.23;;;2.33;;
9906;SDS011;4992;51.628;6.664;2024-02-26T07:42:50;3.80;;;2.60;;
9906;SDS011;4992;51.628;6.664;2024-02-26T07:45:16;2.73;;;2.47;;
9906;SDS011;4992;51.628;6.664;2024-02-26T07:47:44;3.00;;;2.70;;
9906;SDS011;4992;51.628;6.664;2024-02-26T07:50:10;2.70;;;2.50;;
9906;SDS011;4992;51.628;6.664;2024-02-26T07:52:36;2.40;;;2.20;;
9906;SDS011;4992;51.628;6.664;2024-02-26T07:55:03;2.47;;;1.93;;
9906;SDS011;4992;51.628;6.664;2024-02-26T07:57:29;3.33;;;2.10;;
9906;SDS011;4992;51.628;6.664;2024-02-26T07:59:55;1.80;;;1.70;;
9906;SDS011;4992;51.628;6.664;2024-02-26T08:02:21;2.67;;;2.00;;
9906;SDS011;4992;51.628;6.664;2024-02-26T08:04:47;1.60;;;1.50;;
9906;SDS011;4992;51.628;6.664;2024-02-26T08:07:13;3.43;;;2.40;;
9906;SDS011;4992;51.628;6.664;2024-02-26T08:09:39;3.20;;;2.20;;
9906;SDS011;4992;51.628;6.664;2024-02-26T08:12:05;2.60;;;2.40;;
9906;SDS011;4992;51.628;6.664;2024-02-26T08:14:31;1.70;;;1.60;;
9906;SDS011;4992;51.628;6.664;2024-02-26T08:16:57;3.60;;;1.63;;
9906;SDS011;4992;51.628;6.664;2024-02-26T08:19:23;3.20;;;2.20;;
9906;SDS011;4992;51.628;6.664;2024-02-26T08:21:49;2.53;;;1.77;;
9906;SDS011;4992;51.628;6.664;2024-02-26T08:24:15;1.93;;;1.83;;
9906;SDS011;4992;51.628;6.664;2024-02-26T08:26:41;1.80;;;1.70;;
9906;SDS011;4992;51.628;6.664;2024-02-26T08:29:07;2.07;;;1.93;;
9906;SDS011;4992;51.628;6.664;2024-02-26T08:31:33;2.77;;;1.60;;
9906;SDS011;4992;51.628;6.664;2024-02-26T08:34:02;1.73;;;1.63;;
9906;SDS011;4992;51.628;6.664;2024-02-26T08:36:28;1.97;;;1.70;;
9906;SDS011;4992;51.628;6.664;2024-02-26T08:38:54;1.60;;;1.50;;
9906;SDS011;4992;51.628;6.664;2024-02-26T08:41:20;1.63;;;1.53;;
9906;SDS011;4992;51.628;6.664;2024-02-26T08:43:46;1.87;;;1.77;;
9906;SDS011;4992;51.628;6.664;2024-02-26T08:46:12;2.30;;;2.10;;
9906;SDS011;4992;51.628;6.664;2024-02-26T08:48:38;2.13;;;1.80;;
9906;SDS011;4992;51.628;6.664;2024-02-26T08:51:08;1.70;;;1.60;;
9906;SDS011;4992;51.628;6.664;2024-02-26T08:53:34;1.80;;;1.70;;
9906;SDS011;4992;51.628;6.664;2024-02-26T08:56:00;2.67;;;1.80;;
9906;SDS011;4992;51.628;6.664;2024-02-26T08:58:27;2.20;;;1.70;;
9906;SDS011;4992;51.628;6.664;2024-02-26T09:00:53;2.30;;;1.80;;
9906;SDS011;4992;51.628;6.664;2024-02-26T09:03:19;2.10;;;1.70;;
9906;SDS011;4992;51.628;6.664;2024-02-26T09:05:45;2.40;;;1.87;;
9906;SDS011;4992;51.628;6.664;2024-02-26T09:08:11;1.90;;;1.80;;
9906;SDS011;4992;51.628;6.664;2024-02-26T09:10:37;2.40;;;1.47;;
9906;SDS011;4992;51.628;6.664;2024-02-26T09:13:03;2.37;;;2.03;;
9906;SDS011;4992;51.628;6.664;2024-02-26T09:15:29;2.20;;;2.00;;
9906;SDS011;4992;51.628;6.664;2024-02-26T09:17:55;2.50;;;2.20;;
9906;SDS011;4992;51.628;6.664;2024-02-26T09:20:21;2.90;;;2.30;;
9906;SDS011;4992;51.628;6.664;2024-02-26T09:22:49;3.93;;;2.97;;
9906;SDS011;4992;51.628;6.664;2024-02-26T09:25:15;4.40;;;2.57;;
9906;SDS011;4992;51.628;6.664;2024-02-26T09:27:42;2.67;;;2.17;;
9906;SDS011;4992;51.628;6.664;2024-02-26T09:30:09;3.43;;;2.70;;
9906;SDS011;4992;51.628;6.664;2024-02-26T09:32:35;3.50;;;3.20;;
9906;SDS011;4992;51.628;6.664;2024-02-26T09:35:01;3.80;;;3.07;;
9906;SDS011;4992;51.628;6.664;2024-02-26T09:37:27;2.97;;;2.73;;
9906;SDS011;4992;51.628;6.664;2024-02-26T09:39:53;6.73;;;4.50;;
9906;SDS011;4992;51.628;6.664;2024-02-26T09:42:19;3.80;;;3.40;;
9906;SDS011;4992;51.628;6.664;2024-02-26T09:44:45;4.73;;;3.83;;
9906;SDS011;4992;51.628;6.664;2024-02-26T09:47:11;2.87;;;2.50;;
9906;SDS011;4992;51.628;6.664;2024-02-26T09:49:40;3.47;;;2.60;;
9906;SDS011;4992;51.628;6.664;2024-02-26T09:52:08;3.87;;;2.47;;
9906;SDS011;4992;51.628;6.664;2024-02-26T09:54:37;4.47;;;2.67;;
9906;SDS011;4992;51.628;6.664;2024-02-26T09:57:03;3.20;;;2.90;;
9906;SDS011;4992;51.628;6.664;2024-02-26T09:59:34;2.67;;;2.47;;
9906;SDS011;4992;51.628;6.664;2024-02-26T10:02:01;2.80;;;2.60;;
9906;SDS011;4992;51.628;6.664;2024-02-26T10:04:28;2.97;;;2.60;;
9906;SDS011;4992;51.628;6.664;2024-02-26T10:06:54;3.00;;;2.80;;
9906;SDS011;4992;51.628;6.664;2024-02-26T10:09:20;4.27;;;3.00;;
9906;SDS011;4992;51.628;6.664;2024-02-26T10:11:46;3.40;;;3.10;;
9906;SDS011;4992;51.628;6.664;2024-02-26T10:14:14;4.03;;;2.80;;
9906;SDS011;4992;51.628;6.664;2024-02-26T10:16:40;3.67;;;2.87;;
9906;SDS011;4992;51.628;6.664;2024-02-26T10:19:07;3.47;;;3.17;;
9906;SDS011;4992;51.628;6.664;2024-02-26T10:21:33;3.43;;;3.13;;
9906;SDS011;4992;51.628;6.664;2024-02-26T10:23:59;3.47;;;3.17;;
9906;SDS011;4992;51.628;6.664;2024-02-26T10:26:25;3.70;;;3.40;;
9906;SDS011;4992;51.628;6.664;2024-02-26T10:28:51;4.00;;;3.70;;
9906;SDS011;4992;51.628;6.664;2024-02-26T10:31:17;5.43;;;3.70;;
9906;SDS011;4992;51.628;6.664;2024-02-26T10:33:44;4.43;;;4.03;;
9906;SDS011;4992;51.628;6.664;2024-02-26T10:36:10;4.50;;;4.10;;
9906;SDS011;4992;51.628;6.664;2024-02-26T10:38:36;6.80;;;4.23;;
9906;SDS011;4992;51.628;6.664;2024-02-26T10:41:06;4.70;;;4.23;;
9906;SDS011;4992;51.628;6.664;2024-02-26T10:43:33;5.30;;;4.57;;
9906;SDS011;4992;51.628;6.664;2024-02-26T10:45:59;5.20;;;4.70;;
9906;SDS011;4992;51.628;6.664;2024-02-26T10:48:25;5.63;;;4.50;;
9906;SDS011;4992;51.628;6.664;2024-02-26T10:50:51;5.73;;;5.00;;
9906;SDS011;4992;51.628;6.664;2024-02-26T10:53:19;5.23;;;4.70;;
9906;SDS011;4992;51.628;6.664;2024-02-26T10:55:55;5.43;;;4.53;;
9906;SDS011;4992;51.628;6.664;2024-02-26T10:58:22;5.00;;;4.60;;
9906;SDS011;4992;51.628;6.664;2024-02-26T11:00:53;5.47;;;4.97;;
9906;SDS011;4992;51.628;6.664;2024-02-26T11:03:19;6.80;;;4.87;;
9906;SDS011;4992;51.628;6.664;2024-02-26T11:05:47;5.10;;;4.57;;
9906;SDS011;4992;51.628;6.664;2024-02-26T11:08:13;5.70;;;4.80;;
9906;SDS011;4992;51.628;6.664;2024-02-26T11:10:39;6.33;;;5.00;;
9906;SDS011;4992;51.628;6.664;2024-02-26T11:13:05;6.23;;;4.87;;
9906;SDS011;4992;51.628;6.664;2024-02-26T11:15:32;5.97;;;5.47;;
9906;SDS011;4992;51.628;6.664;2024-02-26T11:17:58;7.17;;;6.33;;
9906;SDS011;4992;51.628;6.664;2024-02-26T11:20:25;6.67;;;5.03;;
9906;SDS011;4992;51.628;6.664;2024-02-26T11:22:54;5.63;;;5.13;;
9906;SDS011;4992;51.628;6.664;2024-02-26T11:25:20;6.00;;;5.40;;
9906;SDS011;4992;51.628;6.664;2024-02-26T11:27:48;7.47;;;5.77;;
9906;SDS011;4992;51.628;6.664;2024-02-26T11:30:15;5.70;;;5.20;;
9906;SDS011;4992;51.628;6.664;2024-02-26T11:32:43;6.70;;;6.00;;
9906;SDS011;4992;51.628;6.664;2024-02-26T11:35:10;6.07;;;5.47;;
9906;SDS011;4992;51.628;6.664;2024-02-26T11:37:38;6.23;;;5.73;;
9906;SDS011;4992;51.628;6.664;2024-02-26T11:40:05;7.43;;;5.83;;
9906;SDS011;4992;51.628;6.664;2024-02-26T11:42:35;6.73;;;5.83;;
9906;SDS011;4992;51.628;6.664;2024-02-26T11:45:37;7.33;;;6.07;;
9906;SDS011;4992;51.628;6.664;2024-02-26T11:47:57;6.73;;;6.10;;
9906;SDS011;4992;51.628;6.664;2024-02-26T11:50:32;7.10;;;6.40;;
9906;SDS011;4992;51.628;6.664;2024-02-26T11:55:44;5.67;;;5.17;;
9906;SDS011;4992;51.628;6.664;2024-02-26T11:58:10;6.70;;;5.87;;
9906;SDS011;4992;51.628;6.664;2024-02-26T12:00:36;7.00;;;5.87;;
9906;SDS011;4992;51.628;6.664;2024-02-26T12:03:02;6.43;;;5.83;;
9906;SDS011;4992;51.628;6.664;2024-02-26T12:05:32;7.10;;;5.93;;
9906;SDS011;4992;51.628;6.664;2024-02-26T12:07:59;6.53;;;5.93;;
9906;SDS011;4992;51.628;6.664;2024-02-26T12:10:30;6.13;;;5.53;;
9906;SDS011;4992;51.628;6.664;2024-02-26T12:13:09;6.70;;;6.00;;
9906;SDS011;4992;51.628;6.664;2024-02-26T12:15:37;5.90;;;5.30;;
9906;SDS011;4992;51.628;6.664;2024-02-26T12:18:05;6.47;;;5.80;;
9906;SDS011;4992;51.628;6.664;2024-02-26T12:20:31;6.70;;;6.10;;
9906;SDS011;4992;51.628;6.664;2024-02-26T12:22:57;6.53;;;5.93;;
9906;SDS011;4992;51.628;6.664;2024-02-26T12:25:24;6.67;;;6.07;;
9906;SDS011;4992;51.628;6.664;2024-02-26T12:27:51;6.93;;;6.23;;
9906;SDS011;4992;51.628;6.664;2024-02-26T12:30:17;6.70;;;6.10;;
9906;SDS011;4992;51.628;6.664;2024-02-26T12:32:44;7.10;;;6.40;;
9906;SDS011;4992;51.628;6.664;2024-02-26T12:35:10;7.60;;;6.90;;
9906;SDS011;4992;51.628;6.664;2024-02-26T12:37:36;7.53;;;6.77;;
9906;SDS011;4992;51.628;6.664;2024-02-26T12:40:04;8.50;;;6.83;;
9906;SDS011;4992;51.628;6.664;2024-02-26T12:42:32;6.60;;;5.97;;
9906;SDS011;4992;51.628;6.664;2024-02-26T12:45:04;6.80;;;6.10;;
9906;SDS011;4992;51.628;6.664;2024-02-26T12:47:34;7.63;;;6.40;;
9906;SDS011;4992;51.628;6.664;2024-02-26T12:50:00;7.07;;;5.83;;
9906;SDS011;4992;51.628;6.664;2024-02-26T12:52:26;6.07;;;5.40;;
9906;SDS011;4992;51.628;6.664;2024-02-26T12:54:53;6.30;;;5.80;;
9906;SDS011;4992;51.628;6.664;2024-02-26T12:57:19;6.30;;;5.80;;
9906;SDS011;4992;51.628;6.664;2024-02-26T12:59:45;9.50;;;5.70;;
9906;SDS011;4992;51.628;6.664;2024-02-26T13:02:12;6.30;;;5.10;;
9906;SDS011;4992;51.628;6.664;2024-02-26T13:04:38;6.47;;;5.50;;
9906;SDS011;4992;51.628;6.664;2024-02-26T13:07:04;5.37;;;4.70;;
9906;SDS011;4992;51.628;6.664;2024-02-26T13:09:33;5.70;;;5.10;;
9906;SDS011;4992;51.628;6.664;2024-02-26T13:12:00;5.53;;;5.00;;
9906;SDS011;4992;51.628;6.664;2024-02-26T13:14:29;5.30;;;4.53;;
9906;SDS011;4992;51.628;6.664;2024-02-26T13:16:59;5.60;;;4.57;;
9906;SDS011;4992;51.628;6.664;2024-02-26T13:19:25;5.33;;;4.67;;
9906;SDS011;4992;51.628;6.664;2024-02-26T13:21:52;5.07;;;4.40;;
9906;SDS011;4992;51.628;6.664;2024-02-26T13:24:21;4.93;;;4.43;;
9906;SDS011;4992;51.628;6.664;2024-02-26T13:26:56;5.30;;;4.13;;
9906;SDS011;4992;51.628;6.664;2024-02-26T13:29:22;4.20;;;3.80;;
9906;SDS011;4992;51.628;6.664;2024-02-26T13:31:55;4.10;;;3.70;;
9906;SDS011;4992;51.628;6.664;2024-02-26T13:34:24;4.50;;;4.03;;
9906;SDS011;4992;51.628;6.664;2024-02-26T13:36:51;4.30;;;3.87;;
9906;SDS011;4992;51.628;6.664;2024-02-26T13:39:23;4.03;;;3.63;;
9906;SDS011;4992;51.628;6.664;2024-02-26T13:41:51;4.20;;;3.80;;
9906;SDS011;4992;51.628;6.664;2024-02-26T13:44:17;4.00;;;3.70;;
9906;SDS011;4992;51.628;6.664;2024-02-26T13:46:43;4.10;;;3.80;;
9906;SDS011;4992;51.628;6.664;2024-02-26T13:49:09;4.53;;;4.10;;
9906;SDS011;4992;51.628;6.664;2024-02-26T13:51:36;4.87;;;4.37;;
9906;SDS011;4992;51.628;6.664;2024-02-26T13:54:02;4.93;;;4.33;;
9906;SDS011;4992;51.628;6.664;2024-02-26T13:56:29;5.53;;;4.47;;
9906;SDS011;4992;51.628;6.664;2024-02-26T13:58:55;5.40;;;4.70;;
9906;SDS011;4992;51.628;6.664;2024-02-26T14:01:21;7.10;;;5.67;;
9906;SDS011;4992;51.628;6.664;2024-02-26T14:03:47;5.00;;;4.50;;
9906;SDS011;4992;51.628;6.664;2024-02-26T14:06:13;5.13;;;4.43;;
9906;SDS011;4992;51.628;6.664;2024-02-26T14:08:39;4.73;;;4.20;;
9906;SDS011;4992;51.628;6.664;2024-02-26T14:11:05;4.80;;;4.40;;
9906;SDS011;4992;51.628;6.664;2024-02-26T14:13:31;4.63;;;4.13;;
9906;SDS011;4992;51.628;6.664;2024-02-26T14:15:57;4.87;;;4.47;;
9906;SDS011;4992;51.628;6.664;2024-02-26T14:18:23;5.60;;;5.10;;
9906;SDS011;4992;51.628;6.664;2024-02-26T14:20:49;5.80;;;5.20;;
9906;SDS011;4992;51.628;6.664;2024-02-26T14:23:16;5.70;;;5.20;;
9906;SDS011;4992;51.628;6.664;2024-02-26T14:25:42;5.80;;;5.10;;
9906;SDS011;4992;51.628;6.664;2024-02-26T14:28:08;6.07;;;5.47;;
9906;SDS011;4992;51.628;6.664;2024-02-26T14:30:34;7.37;;;5.70;;
9906;SDS011;4992;51.628;6.664;2024-02-26T14:33:00;6.50;;;5.63;;
9906;SDS011;4992;51.628;6.664;2024-02-26T14:35:26;6.23;;;5.40;;
9906;SDS011;4992;51.628;6.664;2024-02-26T14:37:52;7.10;;;6.40;;
9906;SDS011;4992;51.628;6.664;2024-02-26T14:40:19;7.97;;;6.53;;
9906;SDS011;4992;51.628;6.664;2024-02-26T14:42:45;8.60;;;7.27;;
9906;SDS011;4992;51.628;6.664;2024-02-26T14:45:11;8.83;;;7.33;;
9906;SDS011;4992;51.628;6.664;2024-02-26T14:47:37;8.77;;;7.43;;
9906;SDS011;4992;51.628;6.664;2024-02-26T14:50:04;7.83;;;7.03;;
9906;SDS011;4992;51.628;6.664;2024-02-26T14:52:30;7.97;;;7.00;;
9906;SDS011;4992;51.628;6.664;2024-02-26T14:54:56;9.13;;;7.53;;
9906;SDS011;4992;51.628;6.664;2024-02-26T14:57:23;8.40;;;7.17;;
9906;SDS011;4992;51.628;6.664;2024-02-26T14:59:49;8.43;;;7.53;;
9906;SDS011;4992;51.628;6.664;2024-02-26T15:02:15;11.47;;;8.47;;
9906;SDS011;4992;51.628;6.664;2024-02-26T15:04:41;10.50;;;7.97;;
9906;SDS011;4992;51.628;6.664;2024-02-26T15:07:07;10.07;;;8.43;;
9906;SDS011;4992;51.628;6.664;2024-02-26T15:09:33;9.03;;;7.63;;
9906;SDS011;4992;51.628;6.664;2024-02-26T15:11:59;8.73;;;7.10;;
9906;SDS011;4992;51.628;6.664;2024-02-26T15:14:25;9.60;;;7.77;;